Terminal Aerodrome Forecast
Issued by NWS

Home | Current Version | Previous Version | Text Only | Print | Product List | Glossary On
Versions: 1 2 3 4 5 6 7 8 9 10 11 12
190
FTUS44 KSJT 051123
TAFBBD
TAF
KBBD 051123Z 0512/0612 01004KT 5SM -RA BR OVC009
     FM052100 24003KT P6SM VCSH OVC015
     FM060000 21004KT P6SM SCT250
      AMD NOT SKED=

USA.gov is the U.S. government's official web portal to all federal, state and local government web resources and services.